Dalkey, Ireland

6:35 PM GMT on February 25, 2017 (GMT +0000)
| | Change Station

Elev -9999 ft 0.00 °N, 0.00 °E | Updated 2 seconds ago

Mostly Cloudy
Mostly Cloudy
°F
Feels Like °F
N
Wind Variable Wind from North
Gusts mph

Today
High -- | Low -- °F
--% Chance of Precip.
Yesterday
High -- | Low -- °F
Precip. -- in
Pressure 29.59 in
Visibility 6.2 miles
Clouds Scattered Clouds 1200 ft
Mostly Cloudy 3000 ft
Dew Point Not available.
Humidity Not available.
Rainfall --
Snow Depth Not available.
7:20 AM 5:55 PM
Waning Crescent, 1% visible
METAR EIDW 251830Z 30007KT 9999 -SHRA SCT012 BKN030 08/07 Q1002 NOSIG
Pressure 29.59 in
Visibility 6.2 miles
Clouds Scattered Clouds 1200 ft
Mostly Cloudy 3000 ft
Dew Point Not available.
Humidity Not available.
Rainfall --
Snow Depth Not available.
7:20 AM 5:55 PM
Waning Crescent, 1% visible
METAR EIDW 251830Z 30007KT 9999 -SHRA SCT012 BKN030 08/07 Q1002 NOSIG

Get Your Daily Forecast Email!

Thanks for signing up!

Be on the lookout for a verification email in your inbox.

You'll start receiving the daily forecast at 8 AM.

×

10-Day Weather Forecast

×

Almanac

Astronomy

Feb. 25, 2017 Rise Set
Actual Time
Civil Twilight
Nautical Twilight
Astronomical Twilight
Moon
Length of Visible Light
Length of Day
Tomorrow will be .
, % of the Moon is Illuminated

Today's Extremes

Country Highs Country Lows

Community

WunderPhotos

Upload Photos

1,962,540 photos uploaded!

WunderBlog® & News

Nearby

Air Quality

  Air Quality AQ Index Pollutant
Not available.

Snow Depth

Station Depth Elevation

Earthquake Activity

City Distance Mag. Time & Date
Minimum magnitude displayed is 2.5.

Coastal Water Temperatures

Place Temperature

Stations

Nearby Weather Stations

Station Location Temp. Windchill Dew Point Humidity Wind Precip. Elev Updated Type